Data for 07/29/2016

Time Sea-Level Adjusted Pressure Absolute Pressure Temperature Relative Humidity Dew Point   
(mb) (inHg) (mb) (inHg) (C) (F) (%) (C) (F)
00:05 1022 30.18 851 25.13 19.3 66.7 49 8.3 47
00:10 1022 30.18 851 25.13 19.2 66.5 49 8.3 46.9
00:15 1022 30.18 851 25.13 19.1 66.3 49 8.4 47.1
00:20 1022 30.18 851 25.13 19 66.3 49 8.3 47
00:25 1022 30.18 851 25.13 19 66.2 50 8.4 47.2
00:30 1022 30.18 851 25.13 19 66.1 50 8.5 47.3
00:35 1022 30.18 851 25.13 19 66.2 51 8.7 47.6
00:40 1022 30.18 851 25.13 19 66.1 51 8.7 47.7
00:45 1022 30.18 851 25.13 18.8 65.9 52 8.8 47.9
00:50 1022 30.18 851 25.13 18.8 65.9 51 8.5 47.4
00:55 1022 30.18 851 25.13 18.9 66.1 51 8.7 47.7
01:00 1022 30.18 851 25.13 18.8 65.8 52 8.9 48
01:05 1022 30.18 851 25.13 18.6 65.4 53 8.9 47.9
01:10 1022 30.18 851 25.13 18.5 65.2 53 8.8 47.8
01:15 1022 30.18 851 25.13 18.4 65 54 8.9 48
01:20 1022 30.18 851 25.13 18.2 64.8 54 8.9 48
01:25 1022 30.18 851 25.13 18.1 64.6 55 9 48.1
01:30 1022 30.18 851 25.13 18.2 64.7 54 9 48.1
01:35 1022 30.18 851 25.13 18.2 64.7 54 9 48.1
01:40 1022 30.18 851 25.13 18.2 64.7 55 9 48.2
01:45 1022 30.18 851 25.13 18.1 64.6 54 8.9 48
01:50 1022 30.18 851 25.13 18.2 64.8 54 9 48.1
01:55 1022 30.18 851 25.13 18.1 64.5 55 9.1 48.3
02:00 1022 30.18 851 25.13 17.9 64.2 56 9 48.1
02:05 1022 30.18 851 25.13 17.7 63.8 56 9 48.2
02:10 1022 30.18 851 25.13 17.4 63.3 57 9 48.1
02:15 1022 30.18 851 25.13 17.2 62.9 58 9 48.2
02:20 1022 30.18 851 25.13 17.1 62.7 59 9 48.2
02:25 1022 30.18 851 25.13 17 62.6 59 9.1 48.4
02:30 1022 30.18 851 25.13 16.8 62.3 61 9.3 48.7
02:35 1022 30.18 851 25.13 16.7 62 61 9.1 48.4
02:40 1022 30.18 851 25.13 16.5 61.8 61 9.1 48.3
02:45 1022 30.18 851 25.13 16.4 61.5 61 8.9 48.1
02:50 1022 30.18 851 25.13 16.3 61.4 61 8.8 47.9
02:55 1022 30.18 851 25.13 16.3 61.3 62 9 48.1
03:00 1022 30.18 851 25.13 16.1 61 62 8.8 47.9
03:05 1022 30.18 851 25.13 16 60.9 63 9.1 48.4
03:10 1022 30.18 851 25.13 16 60.7 63 8.9 48.1
03:15 1022 30.18 851 25.13 15.8 60.4 66 9.4 48.9
03:20 1022 30.18 851 25.13 15.6 60.1 66 9.3 48.8
03:25 1022 30.18 851 25.13 15.7 60.3 63 8.7 47.6
03:30 1022 30.18 851 25.13 15.8 60.4 62 8.5 47.3
03:35 1022 30.18 851 25.13 15.7 60.2 61 8.2 46.8
03:40 1022 30.18 851 25.13 15.7 60.2 60 8 46.3
03:45 1022 30.18 851 25.13 15.9 60.6 59 8 46.4
03:50 1022 30.18 851 25.13 15.7 60.2 61 8.2 46.7
03:55 1022 30.18 851 25.13 15.3 59.6 61 8 46.4
04:00 1022 30.18 851 25.13 15.2 59.4 62 8.2 46.7
04:05 1022 30.18 851 25.13 15.2 59.4 62 8 46.5
04:10 1022 30.18 851 25.13 15.1 59.2 62 8 46.3
04:15 1022 30.18 851 25.13 14.9 58.9 63 8 46.4
04:20 1022 30.18 851 25.13 14.9 58.8 63 8.1 46.6
04:25 1022 30.18 851 25.13 14.8 58.6 63 7.8 46
04:30 1022 30.18 851 25.13 14.8 58.7 62 7.8 46
04:35 1022 30.18 851 25.13 15.1 59.2 62 7.9 46.2
04:40 1022 30.18 851 25.13 15 59 63 8 46.5
04:45 1022 30.18 851 25.13 14.7 58.4 64 7.9 46.3
04:50 1022 30.18 851 25.13 14.8 58.6 63 8 46.3
04:55 1022 30.18 851 25.13 14.6 58.2 67 8.7 47.6
05:00 1022 30.18 851 25.13 14.5 58.1 65 8 46.4
05:05 1022 30.18 851 25.13 14.5 58.1 65 8.1 46.5
05:10 1022 30.18 851 25.13 14.4 57.9 65 8.1 46.5
05:15 1022 30.18 851 25.13 14.5 58.1 65 8.2 46.7
05:20 1022 30.18 851 25.13 14.6 58.2 65 8.2 46.7
05:25 1022 30.18 851 25.13 14.6 58.2 65 8 46.4
05:30 1022 30.18 851 25.13 14.6 58.2 65 8.1 46.6
05:35 1022 30.18 851 25.13 14.5 58.1 64 8 46.3
05:40 1022 30.18 851 25.13 14.6 58.2 64 8 46.4
05:45 1022 30.18 851 25.13 14.6 58.3 64 8 46.4
05:50 1022 30.18 851 25.13 14.7 58.5 64 7.9 46.3
05:55 1022 30.18 851 25.13 14.8 58.6 63 7.8 46
06:00 1022 30.18 851 25.13 14.9 58.7 63 7.9 46.1
06:05 1022 30.18 851 25.13 15 59 62 7.8 46
06:10 1022 30.18 851 25.13 15.2 59.4 61 7.8 46
06:15 1022 30.18 851 25.13 15.4 59.7 59 7.6 45.7
06:20 1022 30.18 851 25.13 15.8 60.4 58 7.7 45.8
06:25 1022 30.18 851 25.13 16 60.9 57 7.7 45.9
06:30 1022 30.18 851 25.13 16.2 61.2 57 7.8 46.1
06:35 1022 30.18 851 25.13 16.5 61.6 56 7.8 46
06:40 1022 30.18 852 25.16 16.9 62.5 55 7.9 46.2
06:45 1022 30.18 852 25.16 17.5 63.4 54 8.1 46.6
06:50 1022 30.18 852 25.16 17.6 63.7 54 8.4 47
06:55 1023 30.21 852 25.16 18 64.4 54 8.8 47.8
07:00 1023 30.21 852 25.16 18.1 64.6 55 8.9 48.1
07:05 1023 30.21 852 25.16 17.8 64 55 8.8 47.8
07:10 1023 30.21 852 25.16 17.8 64.1 54 8.4 47.1
07:15 1023 30.21 852 25.16 17.6 63.6 55 8.5 47.3
07:20 1023 30.21 852 25.16 17.8 64 54 8.4 47.1
07:25 1023 30.21 852 25.16 18.4 65 51 8.1 46.6
07:30 1023 30.21 852 25.16 18.2 64.7 53 8.4 47.1
07:35 1023 30.21 852 25.16 18.1 64.6 52 8.2 46.8
07:40 1023 30.21 852 25.16 18.7 65.7 50 8.4 47.1
07:45 1023 30.21 852 25.16 19.8 67.6 48 8.5 47.4
07:50 1023 30.21 852 25.16 20.1 68.2 46 8.3 46.9
07:55 1023 30.21 852 25.16 20.7 69.2 45 8.6 47.4
08:00 1023 30.21 852 25.16 20.5 68.9 46 8.7 47.6
08:05 1023 30.21 852 25.16 20.6 69.1 46 8.9 48
08:10 1023 30.21 852 25.16 21 69.9 44 8.5 47.3
08:15 1023 30.21 852 25.16 21.6 70.8 43 8.7 47.6
08:20 1023 30.21 852 25.16 21.8 71.3 41 8.3 47
08:25 1023 30.21 852 25.16 22.1 71.7 42 8.8 47.8
08:30 1023 30.21 852 25.16 21.9 71.4 41 8.3 47
08:35 1023 30.21 852 25.16 22.1 71.7 40 7.9 46.2
08:40 1022 30.18 852 25.16 21.7 71 41 7.9 46.2
08:45 1022 30.18 852 25.16 21 69.8 42 7.7 45.8
08:50 1022 30.18 852 25.16 21.7 71.1 40 7.7 45.9
08:55 1022 30.18 852 25.16 21.7 71.1 40 7.7 45.8
09:00 1022 30.18 852 25.16 22 71.5 38 7.3 45.1
09:05 1022 30.18 852 25.16 23 73.4 36 7.4 45.4
09:10 1022 30.18 852 25.16 23.2 73.8 37 7.9 46.3
09:15 1022 30.18 852 25.16 23.2 73.8 37 7.9 46.2
09:20 1022 30.18 852 25.16 23.5 74.3 35 7.4 45.4
09:25 1022 30.18 852 25.16 23.7 74.7 37 8.5 47.4
09:30 1022 30.18 852 25.16 22.9 73.3 38 8.2 46.7
09:35 1022 30.18 852 25.16 22.7 72.9 37 7.3 45.1
09:40 1022 30.18 851 25.13 23.5 74.4 34 7.2 45
09:45 1022 30.18 851 25.13 24.3 75.7 33 7.2 44.9
09:50 1022 30.18 851 25.13 24.1 75.4 36 8.2 46.8
09:55 1022 30.18 851 25.13 23.6 74.5 37 8.3 46.9
10:00 1022 30.18 851 25.13 23.8 74.8 35 7.7 45.9
10:05 1022 30.18 851 25.13 23.9 75 37 8.4 47
10:10 1022 30.18 851 25.13 23.6 74.5 36 7.8 46.1
10:15 1022 30.18 851 25.13 24.2 75.5 36 8.3 46.9
10:20 1022 30.18 851 25.13 24.4 76 35 8.3 46.9
10:25 1022 30.18 851 25.13 24.9 76.8 33 7.8 46.1
10:30 1022 30.18 851 25.13 25 76.9 36 9.1 48.3
10:35 1022 30.18 851 25.13 24.6 76.3 35 8.4 47.1
10:40 1022 30.18 851 25.13 25.3 77.5 35 9.1 48.4
10:45 1022 30.18 851 25.13 25.2 77.4 36 9.1 48.4
10:50 1022 30.18 851 25.13 25.6 78 33 8.2 46.8
10:55 1022 30.18 851 25.13 25.9 78.6 33 8.5 47.4
11:00 1022 30.18 851 25.13 25.6 78 34 8.7 47.7
11:05 1022 30.18 851 25.13 25.6 78.1 33 8.5 47.2
11:10 1022 30.18 851 25.13 24.9 76.9 36 9 48.1
11:15 1022 30.18 851 25.13 25.3 77.5 33 8.1 46.6
11:20 1022 30.18 851 25.13 26.1 78.9 32 8.4 47.2
11:25 1022 30.18 851 25.13 26.7 80.1 31 8.3 46.9
11:30 1022 30.18 851 25.13 26.6 79.8 32 8.8 47.9
11:35 1022 30.18 851 25.13 26.5 79.6 31 8.3 47
11:40 1022 30.18 851 25.13 26.7 80 31 8.5 47.3
11:45 1021 30.15 851 25.13 26.8 80.2 30 8 46.3
11:50 1021 30.15 851 25.13 27 80.6 30 8.2 46.7
11:55 1021 30.15 851 25.13 27.2 81 29 7.9 46.3
12:00 1021 30.15 850 25.1 26.7 80.1 29 7.3 45.1
12:05 1021 30.15 850 25.1 27.5 81.4 28 7.7 45.8
12:10 1021 30.15 850 25.1 27.5 81.6 29 8.1 46.5
12:15 1021 30.15 850 25.1 27.8 82 28 7.7 45.9
12:20 1021 30.15 850 25.1 26.8 80.3 27 6.3 43.4
12:25 1021 30.15 850 25.1 27.6 81.7 25 6.2 43.1
12:30 1021 30.15 850 25.1 28.3 83 25 7 44.6
12:35 1021 30.15 850 25.1 28 82.5 26 7 44.6
12:40 1021 30.15 850 25.1 27.7 81.9 24 5.5 41.9
12:45 1021 30.15 850 25.1 27.3 81.1 24 5.5 41.8
12:50 1021 30.15 850 25.1 27.5 81.5 23 4.7 40.5
12:55 1021 30.15 850 25.1 27.6 81.6 22 4.1 39.3
13:00 1021 30.15 850 25.1 27.9 82.2 22 4.4 40
13:05 1021 30.15 850 25.1 28.8 83.8 22 5.1 41.2
13:10 1021 30.15 850 25.1 28.9 84 22 5 41.1
13:15 1021 30.15 850 25.1 28.7 83.7 21 4.4 40
13:20 1021 30.15 850 25.1 28.8 83.8 21 4.6 40.3
13:25 1020 30.12 850 25.1 29.3 84.8 20 4.6 40.3
13:30 1020 30.12 850 25.1 30 85.9 19 4 39.2
13:35 1020 30.12 850 25.1 29.6 85.3 17 2.7 36.9
13:40 1020 30.12 850 25.1 28.8 83.8 20 4.2 39.6
13:45 1020 30.12 850 25.1 28.9 83.9 18 2.2 36
13:50 1020 30.12 850 25.1 29.3 84.7 19 3.4 38.1
13:55 1020 30.12 849 25.07 29.2 84.6 18 3 37.4
14:00 1020 30.12 849 25.07 29.7 85.5 18 3.5 38.3
14:05 1020 30.12 849 25.07 29.6 85.2 18 3 37.3
14:10 1020 30.12 849 25.07 29 84.2 19 3.2 37.8
14:15 1020 30.12 849 25.07 29.1 84.4 18 2.8 37
14:20 1020 30.12 849 25.07 29.2 84.6 19 3.8 38.8
14:25 1020 30.12 849 25.07 29.6 85.3 18 3.4 38.2
14:30 1020 30.12 849 25.07 30.1 86.1 17 2.8 37.1
14:35 1020 30.12 849 25.07 30.3 86.5 17 2.9 37.2
14:40 1020 30.12 849 25.07 29.7 85.5 18 3.3 37.9
14:45 1020 30.12 849 25.07 29.6 85.3 17 2.7 36.9
14:50 1020 30.12 849 25.07 30 85.9 17 2.9 37.2
14:55 1020 30.12 849 25.07 29.9 85.8 17 2.7 36.9
15:00 1020 30.12 849 25.07 29.2 84.6 18 2.8 37.1
15:05 1020 30.12 849 25.07 28.9 84 16 0.9 33.7
15:10 1019 30.09 849 25.07 28.9 84 16 0.7 33.2
15:15 1019 30.09 849 25.07 29.4 84.9 15 0.7 33.2
15:20 1019 30.09 849 25.07 29.9 85.9 15 0.6 33.1
15:25 1019 30.09 849 25.07 30.2 86.3 14 0.4 32.8
15:30 1019 30.09 848 25.04 30.3 86.5 14 -0.1 31.9
15:35 1019 30.09 848 25.04 30.1 86.2 14 0.4 32.7
15:40 1019 30.09 848 25.04 30.3 86.5 14 -0.3 31.5
15:45 1019 30.09 848 25.04 30.3 86.5 14 0.2 32.3
15:50 1019 30.09 848 25.04 30.2 86.4 14 -0.1 31.8
15:55 1019 30.09 848 25.04 30.3 86.6 15 1.2 34.1
16:00 1019 30.09 848 25.04 30.5 87 15 1.5 34.8
16:05 1019 30.09 848 25.04 30 86 15 0.9 33.6
16:10 1019 30.09 848 25.04 29.8 85.7 17 2.2 35.9
16:15 1019 30.09 848 25.04 29.8 85.6 16 1.9 35.4
16:20 1019 30.09 848 25.04 29.7 85.5 15 0.9 33.7
16:25 1019 30.09 848 25.04 29.9 85.8 18 3 37.3
16:30 1019 30.09 848 25.04 30.1 86.1 15 1 33.8
16:35 1019 30.09 848 25.04 30.1 86.1 16 1.5 34.6
16:40 1019 30.09 848 25.04 29.9 85.8 16 1.9 35.4
16:45 1019 30.09 848 25.04 30.4 86.7 16 2.5 36.6
16:50 1019 30.09 848 25.04 30.4 86.7 15 1.5 34.7
16:55 1019 30.09 848 25.04 30.8 87.4 15 1.6 34.9
17:00 1019 30.09 848 25.04 30.8 87.4 15 1.8 35.2
17:05 1019 30.09 848 25.04 30.5 86.9 15 1.7 35
17:10 1019 30.09 848 25.04 29.8 85.6 17 2.4 36.3
17:15 1019 30.09 848 25.04 29.3 84.8 17 1.7 35.1
17:20 1019 30.09 848 25.04 29.4 84.9 17 2.3 36.1
17:25 1018 30.06 848 25.04 29.5 85.1 15 0.2 32.4
17:30 1018 30.06 848 25.04 29.6 85.2 15 0.5 32.9
17:35 1018 30.06 848 25.04 29.8 85.6 15 1.1 34
17:40 1018 30.06 848 25.04 29.4 85 15 0.4 32.7
17:45 1018 30.06 847 25.01 29.1 84.3 16 0.8 33.4
17:50 1018 30.06 847 25.01 29.3 84.7 15 0.3 32.5
17:55 1018 30.06 847 25.01 29.6 85.2 15 0.5 32.9
18:00 1018 30.06 847 25.01 29.4 84.9 15 0.8 33.5
18:05 1018 30.06 847 25.01 29.1 84.3 16 0.7 33.2
18:10 1018 30.06 847 25.01 28.9 83.9 15 0.4 32.7
18:15 1018 30.06 847 25.01 28.5 83.4 16 0.9 33.6
18:20 1018 30.06 847 25.01 28.4 83.1 18 2 35.6
18:25 1018 30.06 847 25.01 28.3 83 18 2.1 35.8
18:30 1018 30.06 847 25.01 28.3 82.9 18 1.7 35
18:35 1018 30.06 847 25.01 28.2 82.8 17 1.3 34.3
18:40 1018 30.06 847 25.01 28.2 82.7 18 1.7 35.1
18:45 1018 30.06 847 25.01 28.1 82.6 18 1.9 35.4
18:50 1018 30.06 847 25.01 28 82.4 18 2.1 35.7
18:55 1018 30.06 847 25.01 27.9 82.2 20 3.1 37.6
19:00 1018 30.06 847 25.01 27.7 81.9 20 3.1 37.6
19:05 1018 30.06 847 25.01 27.7 81.8 20 3 37.4
19:10 1018 30.06 847 25.01 27.6 81.6 18 1.6 34.9
19:15 1018 30.06 847 25.01 27.5 81.5 18 1.6 34.9
19:20 1018 30.06 847 25.01 27.3 81.1 26 6.3 43.4
19:25 1018 30.06 847 25.01 26.2 79.2 28 6.6 43.9
19:30 1018 30.06 847 25.01 25.8 78.5 29 6.6 43.8
19:35 1018 30.06 847 25.01 25.6 78 29 6.6 43.8
19:40 1018 30.06 847 25.01 25.4 77.7 30 6.7 44
19:45 1018 30.06 847 25.01 25.2 77.4 30 6.6 43.9
19:50 1018 30.06 847 25.01 25.1 77.1 30 6.6 43.9
19:55 1018 30.06 847 25.01 24.9 76.8 31 6.7 44
20:00 1018 30.06 847 25.01 24.7 76.4 31 6.7 44
20:05 1018 30.06 847 25.01 24.5 76 32 6.8 44.3
20:10 1018 30.06 847 25.01 24.2 75.6 32 6.7 44.1
20:15 1018 30.06 847 25.01 24 75.2 33 6.8 44.2
20:20 1018 30.06 847 25.01 23.8 74.8 33 6.8 44.2
20:25 1018 30.06 847 25.01 23.7 74.7 33 6.6 43.9
20:30 1018 30.06 847 25.01 23.6 74.5 33 6.5 43.7
20:35 1018 30.06 847 25.01 23.7 74.6 33 6.5 43.6
20:40 1018 30.06 847 25.01 23.6 74.4 33 6.4 43.5
20:45 1018 30.06 847 25.01 23.5 74.3 33 6.3 43.4
20:50 1018 30.06 847 25.01 23.5 74.4 33 6.3 43.4
20:55 1018 30.06 847 25.01 23.4 74.2 33 6.4 43.5
21:00 1018 30.06 847 25.01 23.3 74 33 6.3 43.3
21:05 1018 30.06 847 25.01 23.3 74 33 6.2 43.2
21:10 1018 30.06 847 25.01 23.3 73.9 33 6.3 43.3
21:15 1018 30.06 847 25.01 23.1 73.6 33 6.2 43.1
21:20 1018 30.06 847 25.01 23.1 73.6 33 6.2 43.2
21:25 1018 30.06 847 25.01 23.1 73.5 33 6.3 43.3
21:30 1018 30.06 847 25.01 23 73.4 34 6.3 43.4
21:35 1018 30.06 847 25.01 22.9 73.2 34 6.3 43.4
21:40 1018 30.06 847 25.01 22.8 73 34 6.5 43.7
21:45 1018 30.06 847 25.01 22.7 72.9 34 6.3 43.4
21:50 1018 30.06 847 25.01 22.8 73 34 6.4 43.5
21:55 1018 30.06 847 25.01 22.8 73 34 6.5 43.7
22:00 1018 30.06 847 25.01 22.8 73 35 6.6 43.9
22:05 1018 30.06 847 25.01 22.7 72.8 35 6.7 44
22:10 1018 30.06 847 25.01 22.5 72.6 36 6.8 44.3
22:15 1018 30.06 847 25.01 22.5 72.4 36 6.7 44.1
22:20 1018 30.06 847 25.01 22.4 72.4 36 6.8 44.2
22:25 1018 30.06 847 25.01 22.3 72.2 36 6.8 44.2
22:30 1018 30.06 847 25.01 22.3 72.1 36 6.8 44.3
22:35 1018 30.06 847 25.01 22.2 72 37 6.8 44.3
22:40 1018 30.06 847 25.01 22.1 71.8 37 6.9 44.4
22:45 1018 30.06 847 25.01 22 71.7 37 7 44.7
22:50 1018 30.06 847 25.01 21.9 71.4 37 6.8 44.3
22:55 1018 30.06 847 25.01 21.9 71.5 37 6.8 44.3
23:00 1018 30.06 847 25.01 21.9 71.4 37 6.8 44.2
23:05 1018 30.06 847 25.01 21.9 71.4 37 6.8 44.2
23:10 1018 30.06 847 25.01 21.8 71.3 37 6.8 44.2
23:15 1018 30.06 847 25.01 21.8 71.2 37 6.7 44
23:20 1018 30.06 847 25.01 21.7 71.1 38 6.8 44.2
23:25 1018 30.06 847 25.01 21.7 71 37 6.6 43.9
23:30 1017 30.03 847 25.01 21.6 71 37 6.5 43.8
23:35 1018 30.06 847 25.01 21.6 70.8 38 6.7 44.1
23:40 1018 30.06 847 25.01 21.4 70.5 38 6.6 43.8
23:45 1018 30.06 847 25.01 21.4 70.5 38 6.8 44.2
23:50 1017 30.03 847 25.01 21.3 70.3 38 6.7 44
23:55 1017 30.03 847 25.01 21.2 70.2 39 6.7 44.1
24:00 1017 30.03 847 25.01 21.1 70 39 6.8 44.2